Willow, AK

8:06 PM AKST on February 06, 2016 (GMT -0900)
APRSWXNET | | Change Station
CLOSE
Current Station
Personal Weather Station
Location: Willow, AK
Elevation: 232 ft
Nearby Weather Stations

Elev 232 ft 61.73 °N, 150.07 °W | Updated 18 minutes ago

Overcast
Overcast
26 °F
Feels Like 26 °F
N
0
Wind Variable Wind from North
Gusts 0.0 mph

Today
High -- | Low -- °F
--% Chance of Precip.
Yesterday
High -- | Low -- °F
Precip. -- in
Pressure 29.89 in
Visibility 10.0 miles
Clouds Overcast 10000 ft
Windchill 26 °F
Dew Point 22 °F
Humidity 86%
Rainfall in
Snow Depth Not available.
9:11 AM 5:18 PM
Waning Crescent, 3% visible
METAR PAWS 070456Z AUTO 08007KT 10SM OVC100 00/M09 A2989 RMK AO1
Pressure 29.89 in
Visibility 10.0 miles
Clouds Overcast 10000 ft
Windchill 26 °F
Dew Point 22 °F
Humidity 86%
Rainfall in
Snow Depth Not available.
9:11 AM 5:18 PM
Waning Crescent, 3% visible
METAR PAWS 070456Z AUTO 08007KT 10SM OVC100 00/M09 A2989 RMK AO1

10-Day Weather Forecast

Almanac

Astronomy

Feb. 06, 2016 Rise Set
Actual Time
Civil Twilight
Nautical Twilight
Astronomical Twilight
Moon
Length of Visible Light
Length of Day
Tomorrow will be .
, % of the Moon is Illuminated

Today's Extremes

State Highs State Lows

Community

WunderPhotos

Upload Photos

1,891,157 photos uploaded!

WunderBlog® & News

Nearby

Air Quality

  Air Quality AQ Index Pollutant
Not available.

Snow Depth

Station Depth Elevation

Earthquake Activity

City Distance Mag. Time & Date
Minimum magnitude displayed is 2.5.

Coastal Water Temperatures

Place Temperature

Stations

Nearby Weather Stations

Station Location Temp. Windchill Dew Point Humidity Wind Precip. Elev Updated Type
                   

Watches & Warnings

There are currently no watches in effect.